sensor_id;sensor_type;location;lat;lon;timestamp;P1;durP1;ratioP1;P2;durP2;ratioP2
1300;SDS011;59099;48.806;9.160;2022-12-18T00:02:06;51.43;;;25.40;;
1300;SDS011;59099;48.806;9.160;2022-12-18T00:04:32;40.13;;;23.70;;
1300;SDS011;59099;48.806;9.160;2022-12-18T00:06:58;49.63;;;24.67;;
1300;SDS011;59099;48.806;9.160;2022-12-18T00:09:23;50.83;;;24.90;;
1300;SDS011;59099;48.806;9.160;2022-12-18T00:11:50;45.20;;;23.70;;
1300;SDS011;59099;48.806;9.160;2022-12-18T00:14:16;49.00;;;23.20;;
1300;SDS011;59099;48.806;9.160;2022-12-18T00:16:43;51.50;;;24.97;;
1300;SDS011;59099;48.806;9.160;2022-12-18T00:19:10;47.57;;;22.83;;
1300;SDS011;59099;48.806;9.160;2022-12-18T00:21:36;51.80;;;26.47;;
1300;SDS011;59099;48.806;9.160;2022-12-18T00:24:04;45.10;;;22.97;;
1300;SDS011;59099;48.806;9.160;2022-12-18T00:26:31;43.23;;;21.90;;
1300;SDS011;59099;48.806;9.160;2022-12-18T00:29:04;57.80;;;26.77;;
1300;SDS011;59099;48.806;9.160;2022-12-18T00:31:36;38.83;;;22.37;;
1300;SDS011;59099;48.806;9.160;2022-12-18T00:34:02;46.60;;;25.33;;
1300;SDS011;59099;48.806;9.160;2022-12-18T00:36:30;57.03;;;27.50;;
1300;SDS011;59099;48.806;9.160;2022-12-18T00:38:59;51.67;;;26.03;;
1300;SDS011;59099;48.806;9.160;2022-12-18T00:41:26;54.83;;;26.50;;
1300;SDS011;59099;48.806;9.160;2022-12-18T00:44:12;46.30;;;23.80;;
1300;SDS011;59099;48.806;9.160;2022-12-18T00:46:39;53.07;;;27.40;;
1300;SDS011;59099;48.806;9.160;2022-12-18T00:49:06;53.23;;;26.63;;
1300;SDS011;59099;48.806;9.160;2022-12-18T00:51:32;48.13;;;24.70;;
1300;SDS011;59099;48.806;9.160;2022-12-18T00:53:59;46.93;;;23.87;;
1300;SDS011;59099;48.806;9.160;2022-12-18T00:56:25;43.13;;;22.37;;
1300;SDS011;59099;48.806;9.160;2022-12-18T00:58:51;48.27;;;24.73;;
1300;SDS011;59099;48.806;9.160;2022-12-18T01:01:17;45.70;;;24.17;;
1300;SDS011;59099;48.806;9.160;2022-12-18T01:03:43;47.00;;;23.43;;
1300;SDS011;59099;48.806;9.160;2022-12-18T01:06:12;49.30;;;24.23;;
1300;SDS011;59099;48.806;9.160;2022-12-18T01:08:40;52.43;;;25.27;;
1300;SDS011;59099;48.806;9.160;2022-12-18T01:11:10;50.97;;;26.37;;
1300;SDS011;59099;48.806;9.160;2022-12-18T01:13:42;43.67;;;24.00;;
1300;SDS011;59099;48.806;9.160;2022-12-18T01:16:13;62.20;;;26.90;;
1300;SDS011;59099;48.806;9.160;2022-12-18T01:18:40;48.03;;;24.67;;
1300;SDS011;59099;48.806;9.160;2022-12-18T01:21:10;56.27;;;26.03;;
1300;SDS011;59099;48.806;9.160;2022-12-18T01:23:38;55.53;;;27.67;;
1300;SDS011;59099;48.806;9.160;2022-12-18T01:26:08;52.13;;;25.90;;
1300;SDS011;59099;48.806;9.160;2022-12-18T01:28:39;58.60;;;28.33;;
1300;SDS011;59099;48.806;9.160;2022-12-18T01:33:35;43.30;;;22.30;;
1300;SDS011;59099;48.806;9.160;2022-12-18T01:36:01;49.23;;;27.10;;
1300;SDS011;59099;48.806;9.160;2022-12-18T01:38:28;45.73;;;24.27;;
1300;SDS011;59099;48.806;9.160;2022-12-18T01:40:58;46.27;;;24.97;;
1300;SDS011;59099;48.806;9.160;2022-12-18T01:46:18;45.57;;;24.90;;
1300;SDS011;59099;48.806;9.160;2022-12-18T01:48:47;46.77;;;25.03;;
1300;SDS011;59099;48.806;9.160;2022-12-18T01:51:15;60.13;;;25.73;;
1300;SDS011;59099;48.806;9.160;2022-12-18T01:53:43;52.00;;;24.13;;
1300;SDS011;59099;48.806;9.160;2022-12-18T01:56:12;53.60;;;27.00;;
1300;SDS011;59099;48.806;9.160;2022-12-18T02:01:28;48.93;;;24.33;;
1300;SDS011;59099;48.806;9.160;2022-12-18T02:06:51;46.73;;;22.70;;
1300;SDS011;59099;48.806;9.160;2022-12-18T02:09:36;50.20;;;24.70;;
1300;SDS011;59099;48.806;9.160;2022-12-18T02:12:36;47.17;;;23.20;;
1300;SDS011;59099;48.806;9.160;2022-12-18T02:17:46;44.47;;;22.63;;
1300;SDS011;59099;48.806;9.160;2022-12-18T02:20:52;43.63;;;23.37;;
1300;SDS011;59099;48.806;9.160;2022-12-18T02:26:14;46.97;;;25.73;;
1300;SDS011;59099;48.806;9.160;2022-12-18T02:28:52;45.97;;;25.37;;
1300;SDS011;59099;48.806;9.160;2022-12-18T02:31:23;50.30;;;25.03;;
1300;SDS011;59099;48.806;9.160;2022-12-18T02:33:53;47.50;;;23.10;;
1300;SDS011;59099;48.806;9.160;2022-12-18T02:36:22;51.57;;;26.57;;
1300;SDS011;59099;48.806;9.160;2022-12-18T02:38:51;50.80;;;24.17;;
1300;SDS011;59099;48.806;9.160;2022-12-18T02:41:20;48.47;;;22.73;;
1300;SDS011;59099;48.806;9.160;2022-12-18T02:44:00;49.33;;;23.33;;
1300;SDS011;59099;48.806;9.160;2022-12-18T02:46:36;46.50;;;23.60;;
1300;SDS011;59099;48.806;9.160;2022-12-18T02:57:54;49.53;;;26.30;;
1300;SDS011;59099;48.806;9.160;2022-12-18T03:00:44;45.97;;;22.77;;
1300;SDS011;59099;48.806;9.160;2022-12-18T03:03:38;41.83;;;21.27;;
1300;SDS011;59099;48.806;9.160;2022-12-18T03:06:26;42.47;;;22.80;;
1300;SDS011;59099;48.806;9.160;2022-12-18T03:09:06;49.67;;;23.40;;
1300;SDS011;59099;48.806;9.160;2022-12-18T03:11:36;46.30;;;23.93;;
1300;SDS011;59099;48.806;9.160;2022-12-18T03:14:26;46.60;;;23.30;;
1300;SDS011;59099;48.806;9.160;2022-12-18T03:16:58;45.13;;;22.37;;
1300;SDS011;59099;48.806;9.160;2022-12-18T03:19:29;51.50;;;25.47;;
1300;SDS011;59099;48.806;9.160;2022-12-18T03:22:00;45.47;;;24.90;;
1300;SDS011;59099;48.806;9.160;2022-12-18T03:24:37;54.80;;;25.90;;
1300;SDS011;59099;48.806;9.160;2022-12-18T03:27:06;47.03;;;23.30;;
1300;SDS011;59099;48.806;9.160;2022-12-18T03:29:47;50.03;;;25.47;;
1300;SDS011;59099;48.806;9.160;2022-12-18T03:32:38;48.23;;;26.00;;
1300;SDS011;59099;48.806;9.160;2022-12-18T03:35:06;45.20;;;23.90;;
1300;SDS011;59099;48.806;9.160;2022-12-18T03:37:36;46.93;;;21.70;;
1300;SDS011;59099;48.806;9.160;2022-12-18T03:40:04;61.83;;;28.63;;
1300;SDS011;59099;48.806;9.160;2022-12-18T03:42:35;41.97;;;24.53;;
1300;SDS011;59099;48.806;9.160;2022-12-18T03:45:42;44.00;;;21.80;;
1300;SDS011;59099;48.806;9.160;2022-12-18T03:48:30;48.37;;;23.27;;
1300;SDS011;59099;48.806;9.160;2022-12-18T03:51:08;47.67;;;23.20;;
1300;SDS011;59099;48.806;9.160;2022-12-18T03:54:00;39.90;;;23.30;;
1300;SDS011;59099;48.806;9.160;2022-12-18T03:56:34;47.80;;;22.90;;
1300;SDS011;59099;48.806;9.160;2022-12-18T03:59:06;45.73;;;22.13;;
1300;SDS011;59099;48.806;9.160;2022-12-18T04:01:40;49.10;;;24.10;;
1300;SDS011;59099;48.806;9.160;2022-12-18T04:04:12;42.83;;;21.77;;
1300;SDS011;59099;48.806;9.160;2022-12-18T04:06:40;50.07;;;23.23;;
1300;SDS011;59099;48.806;9.160;2022-12-18T04:09:10;46.13;;;23.90;;
1300;SDS011;59099;48.806;9.160;2022-12-18T04:11:41;45.30;;;23.70;;
1300;SDS011;59099;48.806;9.160;2022-12-18T04:14:12;45.00;;;23.33;;
1300;SDS011;59099;48.806;9.160;2022-12-18T04:16:39;49.27;;;22.20;;
1300;SDS011;59099;48.806;9.160;2022-12-18T04:19:08;42.90;;;23.57;;
1300;SDS011;59099;48.806;9.160;2022-12-18T04:21:38;42.90;;;23.03;;
1300;SDS011;59099;48.806;9.160;2022-12-18T04:24:05;42.47;;;19.20;;
1300;SDS011;59099;48.806;9.160;2022-12-18T04:26:33;43.30;;;23.20;;
1300;SDS011;59099;48.806;9.160;2022-12-18T04:29:23;40.37;;;21.60;;
1300;SDS011;59099;48.806;9.160;2022-12-18T04:31:49;47.03;;;23.20;;
1300;SDS011;59099;48.806;9.160;2022-12-18T04:34:15;47.47;;;24.17;;
1300;SDS011;59099;48.806;9.160;2022-12-18T04:36:48;43.77;;;22.40;;
1300;SDS011;59099;48.806;9.160;2022-12-18T04:39:14;46.43;;;22.40;;
1300;SDS011;59099;48.806;9.160;2022-12-18T04:41:47;52.60;;;23.10;;
1300;SDS011;59099;48.806;9.160;2022-12-18T04:44:13;40.13;;;22.87;;
1300;SDS011;59099;48.806;9.160;2022-12-18T04:46:39;51.57;;;24.20;;
1300;SDS011;59099;48.806;9.160;2022-12-18T04:49:05;44.10;;;24.60;;
1300;SDS011;59099;48.806;9.160;2022-12-18T04:51:31;40.17;;;21.17;;
1300;SDS011;59099;48.806;9.160;2022-12-18T04:53:57;43.83;;;21.30;;
1300;SDS011;59099;48.806;9.160;2022-12-18T04:56:23;41.67;;;22.17;;
1300;SDS011;59099;48.806;9.160;2022-12-18T04:58:49;41.23;;;21.57;;
1300;SDS011;59099;48.806;9.160;2022-12-18T05:01:15;41.13;;;21.63;;
1300;SDS011;59099;48.806;9.160;2022-12-18T05:03:42;43.67;;;22.70;;
1300;SDS011;59099;48.806;9.160;2022-12-18T05:06:08;39.37;;;20.50;;
1300;SDS011;59099;48.806;9.160;2022-12-18T05:08:35;38.80;;;21.03;;
1300;SDS011;59099;48.806;9.160;2022-12-18T05:13:29;40.23;;;22.40;;
1300;SDS011;59099;48.806;9.160;2022-12-18T05:15:56;42.87;;;20.97;;
1300;SDS011;59099;48.806;9.160;2022-12-18T05:18:23;45.63;;;22.50;;
1300;SDS011;59099;48.806;9.160;2022-12-18T05:20:49;42.17;;;21.40;;
1300;SDS011;59099;48.806;9.160;2022-12-18T05:23:16;41.33;;;21.80;;
1300;SDS011;59099;48.806;9.160;2022-12-18T05:25:42;37.10;;;21.30;;
1300;SDS011;59099;48.806;9.160;2022-12-18T05:28:15;40.70;;;22.57;;
1300;SDS011;59099;48.806;9.160;2022-12-18T05:30:41;40.23;;;20.63;;
1300;SDS011;59099;48.806;9.160;2022-12-18T05:33:07;35.53;;;20.57;;
1300;SDS011;59099;48.806;9.160;2022-12-18T05:35:33;38.73;;;21.03;;
1300;SDS011;59099;48.806;9.160;2022-12-18T05:37:59;40.27;;;20.03;;
1300;SDS011;59099;48.806;9.160;2022-12-18T05:40:24;44.67;;;22.00;;
1300;SDS011;59099;48.806;9.160;2022-12-18T05:42:50;38.47;;;20.73;;
1300;SDS011;59099;48.806;9.160;2022-12-18T05:45:16;37.37;;;19.00;;
1300;SDS011;59099;48.806;9.160;2022-12-18T05:47:42;43.67;;;21.80;;
1300;SDS011;59099;48.806;9.160;2022-12-18T05:50:09;39.80;;;21.70;;
1300;SDS011;59099;48.806;9.160;2022-12-18T05:52:34;34.43;;;20.37;;
1300;SDS011;59099;48.806;9.160;2022-12-18T05:55:00;37.00;;;21.03;;
1300;SDS011;59099;48.806;9.160;2022-12-18T05:57:26;38.50;;;20.43;;
1300;SDS011;59099;48.806;9.160;2022-12-18T05:59:52;39.57;;;20.67;;
1300;SDS011;59099;48.806;9.160;2022-12-18T06:02:17;38.10;;;20.13;;
1300;SDS011;59099;48.806;9.160;2022-12-18T06:04:44;37.40;;;19.83;;
1300;SDS011;59099;48.806;9.160;2022-12-18T06:07:10;39.23;;;20.70;;
1300;SDS011;59099;48.806;9.160;2022-12-18T06:09:36;36.97;;;20.50;;
1300;SDS011;59099;48.806;9.160;2022-12-18T06:12:02;37.53;;;20.97;;
1300;SDS011;59099;48.806;9.160;2022-12-18T06:14:27;38.97;;;20.27;;
1300;SDS011;59099;48.806;9.160;2022-12-18T06:16:53;38.63;;;19.30;;
1300;SDS011;59099;48.806;9.160;2022-12-18T06:19:19;39.43;;;20.50;;
1300;SDS011;59099;48.806;9.160;2022-12-18T06:21:45;34.50;;;19.60;;
1300;SDS011;59099;48.806;9.160;2022-12-18T06:24:11;37.60;;;21.67;;
1300;SDS011;59099;48.806;9.160;2022-12-18T06:26:37;45.97;;;24.23;;
1300;SDS011;59099;48.806;9.160;2022-12-18T06:29:04;43.23;;;24.17;;
1300;SDS011;59099;48.806;9.160;2022-12-18T06:31:30;37.13;;;18.50;;
1300;SDS011;59099;48.806;9.160;2022-12-18T06:33:56;42.30;;;19.10;;
1300;SDS011;59099;48.806;9.160;2022-12-18T06:36:22;35.63;;;19.33;;
1300;SDS011;59099;48.806;9.160;2022-12-18T06:38:48;38.60;;;20.90;;
1300;SDS011;59099;48.806;9.160;2022-12-18T06:41:18;35.50;;;21.87;;
1300;SDS011;59099;48.806;9.160;2022-12-18T06:43:45;37.77;;;20.70;;
1300;SDS011;59099;48.806;9.160;2022-12-18T06:46:11;38.47;;;19.60;;
1300;SDS011;59099;48.806;9.160;2022-12-18T06:48:38;40.43;;;19.83;;
1300;SDS011;59099;48.806;9.160;2022-12-18T06:51:03;32.30;;;18.00;;
1300;SDS011;59099;48.806;9.160;2022-12-18T06:53:31;40.90;;;21.00;;
1300;SDS011;59099;48.806;9.160;2022-12-18T06:56:06;41.23;;;20.10;;
1300;SDS011;59099;48.806;9.160;2022-12-18T06:58:32;45.63;;;23.10;;
1300;SDS011;59099;48.806;9.160;2022-12-18T07:01:05;41.03;;;21.07;;
1300;SDS011;59099;48.806;9.160;2022-12-18T07:03:32;40.77;;;21.07;;
1300;SDS011;59099;48.806;9.160;2022-12-18T07:05:57;40.07;;;21.70;;
1300;SDS011;59099;48.806;9.160;2022-12-18T07:08:24;43.63;;;22.07;;
1300;SDS011;59099;48.806;9.160;2022-12-18T07:10:50;41.53;;;20.77;;
1300;SDS011;59099;48.806;9.160;2022-12-18T07:13:18;37.47;;;22.57;;
1300;SDS011;59099;48.806;9.160;2022-12-18T07:15:44;37.37;;;21.33;;
1300;SDS011;59099;48.806;9.160;2022-12-18T07:18:10;42.23;;;17.73;;
1300;SDS011;59099;48.806;9.160;2022-12-18T07:20:36;35.73;;;18.00;;
1300;SDS011;59099;48.806;9.160;2022-12-18T07:23:02;33.67;;;18.50;;
1300;SDS011;59099;48.806;9.160;2022-12-18T07:25:33;32.43;;;16.30;;
1300;SDS011;59099;48.806;9.160;2022-12-18T07:28:02;33.43;;;16.57;;
1300;SDS011;59099;48.806;9.160;2022-12-18T07:30:28;28.70;;;15.37;;
1300;SDS011;59099;48.806;9.160;2022-12-18T07:32:54;41.30;;;19.27;;
1300;SDS011;59099;48.806;9.160;2022-12-18T07:35:20;30.40;;;17.90;;
1300;SDS011;59099;48.806;9.160;2022-12-18T07:37:45;36.20;;;18.90;;
1300;SDS011;59099;48.806;9.160;2022-12-18T07:40:11;34.13;;;19.63;;
1300;SDS011;59099;48.806;9.160;2022-12-18T07:42:37;33.13;;;19.40;;
1300;SDS011;59099;48.806;9.160;2022-12-18T07:45:03;41.17;;;17.80;;
1300;SDS011;59099;48.806;9.160;2022-12-18T07:47:30;43.50;;;19.87;;
1300;SDS011;59099;48.806;9.160;2022-12-18T07:49:56;34.43;;;18.27;;
1300;SDS011;59099;48.806;9.160;2022-12-18T07:52:22;33.87;;;19.40;;
1300;SDS011;59099;48.806;9.160;2022-12-18T07:54:48;42.60;;;23.00;;
1300;SDS011;59099;48.806;9.160;2022-12-18T07:57:15;47.07;;;23.37;;
1300;SDS011;59099;48.806;9.160;2022-12-18T07:59:42;53.90;;;26.70;;
1300;SDS011;59099;48.806;9.160;2022-12-18T08:02:08;46.20;;;22.97;;
1300;SDS011;59099;48.806;9.160;2022-12-18T08:04:34;42.50;;;20.50;;
1300;SDS011;59099;48.806;9.160;2022-12-18T08:07:00;45.87;;;25.13;;
1300;SDS011;59099;48.806;9.160;2022-12-18T08:09:26;41.13;;;23.43;;
1300;SDS011;59099;48.806;9.160;2022-12-18T08:11:52;37.60;;;20.40;;
1300;SDS011;59099;48.806;9.160;2022-12-18T08:14:18;38.87;;;20.80;;
1300;SDS011;59099;48.806;9.160;2022-12-18T08:16:43;33.53;;;19.90;;
1300;SDS011;59099;48.806;9.160;2022-12-18T08:19:09;38.73;;;19.83;;
1300;SDS011;59099;48.806;9.160;2022-12-18T08:21:35;35.67;;;20.10;;
1300;SDS011;59099;48.806;9.160;2022-12-18T08:24:01;37.47;;;19.00;;
1300;SDS011;59099;48.806;9.160;2022-12-18T08:26:29;34.70;;;20.10;;
1300;SDS011;59099;48.806;9.160;2022-12-18T08:28:59;33.53;;;19.40;;
1300;SDS011;59099;48.806;9.160;2022-12-18T08:31:26;31.00;;;19.50;;
1300;SDS011;59099;48.806;9.160;2022-12-18T08:33:53;39.47;;;19.60;;
1300;SDS011;59099;48.806;9.160;2022-12-18T08:36:20;41.87;;;21.27;;
1300;SDS011;59099;48.806;9.160;2022-12-18T08:38:46;38.43;;;22.77;;
1300;SDS011;59099;48.806;9.160;2022-12-18T08:41:14;42.37;;;21.03;;
1300;SDS011;59099;48.806;9.160;2022-12-18T08:43:41;45.10;;;20.40;;
1300;SDS011;59099;48.806;9.160;2022-12-18T08:46:26;46.43;;;23.80;;
1300;SDS011;59099;48.806;9.160;2022-12-18T08:48:57;40.63;;;21.20;;
1300;SDS011;59099;48.806;9.160;2022-12-18T08:51:23;34.67;;;19.90;;
1300;SDS011;59099;48.806;9.160;2022-12-18T08:53:49;37.63;;;20.67;;
1300;SDS011;59099;48.806;9.160;2022-12-18T08:56:15;39.97;;;20.57;;
1300;SDS011;59099;48.806;9.160;2022-12-18T08:58:41;39.10;;;21.83;;
1300;SDS011;59099;48.806;9.160;2022-12-18T09:01:09;41.23;;;23.07;;
1300;SDS011;59099;48.806;9.160;2022-12-18T09:03:36;42.03;;;22.13;;
1300;SDS011;59099;48.806;9.160;2022-12-18T09:06:02;41.47;;;21.93;;
1300;SDS011;59099;48.806;9.160;2022-12-18T09:08:29;39.17;;;21.73;;
1300;SDS011;59099;48.806;9.160;2022-12-18T09:10:55;48.73;;;24.40;;
1300;SDS011;59099;48.806;9.160;2022-12-18T09:13:20;42.33;;;23.40;;
1300;SDS011;59099;48.806;9.160;2022-12-18T09:18:15;36.90;;;21.90;;
1300;SDS011;59099;48.806;9.160;2022-12-18T09:20:41;41.77;;;22.43;;
1300;SDS011;59099;48.806;9.160;2022-12-18T09:23:07;46.17;;;25.37;;
1300;SDS011;59099;48.806;9.160;2022-12-18T09:25:34;43.57;;;25.00;;
1300;SDS011;59099;48.806;9.160;2022-12-18T09:28:05;50.00;;;23.97;;
1300;SDS011;59099;48.806;9.160;2022-12-18T09:30:37;43.30;;;25.77;;
1300;SDS011;59099;48.806;9.160;2022-12-18T09:33:03;40.90;;;24.60;;
1300;SDS011;59099;48.806;9.160;2022-12-18T09:35:29;39.13;;;23.00;;
1300;SDS011;59099;48.806;9.160;2022-12-18T09:37:55;43.27;;;24.70;;
1300;SDS011;59099;48.806;9.160;2022-12-18T09:40:23;37.90;;;22.70;;
1300;SDS011;59099;48.806;9.160;2022-12-18T09:42:57;46.80;;;26.40;;
1300;SDS011;59099;48.806;9.160;2022-12-18T09:45:27;42.60;;;24.87;;
1300;SDS011;59099;48.806;9.160;2022-12-18T09:48:10;47.03;;;27.17;;
1300;SDS011;59099;48.806;9.160;2022-12-18T09:51:16;36.17;;;21.57;;
1300;SDS011;59099;48.806;9.160;2022-12-18T09:53:47;52.80;;;28.80;;
1300;SDS011;59099;48.806;9.160;2022-12-18T09:56:18;40.60;;;25.20;;
1300;SDS011;59099;48.806;9.160;2022-12-18T09:58:58;38.13;;;22.80;;
1300;SDS011;59099;48.806;9.160;2022-12-18T10:01:25;43.10;;;23.00;;
1300;SDS011;59099;48.806;9.160;2022-12-18T10:03:53;43.07;;;25.67;;
1300;SDS011;59099;48.806;9.160;2022-12-18T10:14:58;45.53;;;23.87;;
1300;SDS011;59099;48.806;9.160;2022-12-18T10:20:21;48.70;;;23.90;;
1300;SDS011;59099;48.806;9.160;2022-12-18T10:25:25;40.50;;;23.90;;
1300;SDS011;59099;48.806;9.160;2022-12-18T10:27:53;48.63;;;25.97;;
1300;SDS011;59099;48.806;9.160;2022-12-18T10:30:23;41.23;;;22.70;;
1300;SDS011;59099;48.806;9.160;2022-12-18T10:32:50;43.27;;;24.40;;
1300;SDS011;59099;48.806;9.160;2022-12-18T10:35:20;42.37;;;24.77;;
1300;SDS011;59099;48.806;9.160;2022-12-18T10:40:58;41.20;;;23.30;;
1300;SDS011;59099;48.806;9.160;2022-12-18T10:44:11;47.10;;;24.80;;
1300;SDS011;59099;48.806;9.160;2022-12-18T10:46:40;48.53;;;24.73;;
1300;SDS011;59099;48.806;9.160;2022-12-18T10:49:17;45.27;;;24.87;;
1300;SDS011;59099;48.806;9.160;2022-12-18T10:51:46;45.97;;;24.53;;
1300;SDS011;59099;48.806;9.160;2022-12-18T10:54:17;43.30;;;25.10;;
1300;SDS011;59099;48.806;9.160;2022-12-18T10:56:46;46.17;;;23.37;;
1300;SDS011;59099;48.806;9.160;2022-12-18T10:59:13;41.67;;;24.70;;
1300;SDS011;59099;48.806;9.160;2022-12-18T11:01:51;36.60;;;23.17;;
1300;SDS011;59099;48.806;9.160;2022-12-18T11:04:27;39.57;;;25.57;;
1300;SDS011;59099;48.806;9.160;2022-12-18T11:06:58;43.83;;;25.07;;
1300;SDS011;59099;48.806;9.160;2022-12-18T11:09:30;38.83;;;25.50;;
1300;SDS011;59099;48.806;9.160;2022-12-18T11:14:43;51.80;;;25.73;;
1300;SDS011;59099;48.806;9.160;2022-12-18T11:20:01;42.03;;;25.10;;
1300;SDS011;59099;48.806;9.160;2022-12-18T11:22:30;40.70;;;24.80;;
1300;SDS011;59099;48.806;9.160;2022-12-18T11:24:59;39.87;;;24.03;;
1300;SDS011;59099;48.806;9.160;2022-12-18T11:27:26;33.87;;;23.17;;
1300;SDS011;59099;48.806;9.160;2022-12-18T11:30:06;31.97;;;23.27;;
1300;SDS011;59099;48.806;9.160;2022-12-18T11:32:53;33.07;;;21.90;;
1300;SDS011;59099;48.806;9.160;2022-12-18T11:38:52;33.50;;;22.67;;
1300;SDS011;59099;48.806;9.160;2022-12-18T11:41:05;30.50;;;21.63;;
1300;SDS011;59099;48.806;9.160;2022-12-18T11:43:53;28.80;;;21.03;;
1300;SDS011;59099;48.806;9.160;2022-12-18T11:46:24;30.70;;;22.73;;
1300;SDS011;59099;48.806;9.160;2022-12-18T11:49:06;35.23;;;22.07;;
1300;SDS011;59099;48.806;9.160;2022-12-18T11:52:03;30.37;;;19.23;;
1300;SDS011;59099;48.806;9.160;2022-12-18T11:54:42;31.50;;;19.73;;
1300;SDS011;59099;48.806;9.160;2022-12-18T11:57:12;28.00;;;20.53;;
1300;SDS011;59099;48.806;9.160;2022-12-18T12:06:31;26.03;;;19.10;;
1300;SDS011;59099;48.806;9.160;2022-12-18T12:11:13;27.63;;;19.47;;
1300;SDS011;59099;48.806;9.160;2022-12-18T12:13:59;31.37;;;20.23;;
1300;SDS011;59099;48.806;9.160;2022-12-18T12:16:41;28.47;;;20.90;;
1300;SDS011;59099;48.806;9.160;2022-12-18T12:20:11;27.67;;;20.20;;
1300;SDS011;59099;48.806;9.160;2022-12-18T12:22:13;28.00;;;19.87;;
1300;SDS011;59099;48.806;9.160;2022-12-18T12:33:05;28.90;;;21.03;;
1300;SDS011;59099;48.806;9.160;2022-12-18T12:35:52;30.60;;;19.07;;
1300;SDS011;59099;48.806;9.160;2022-12-18T12:38:33;29.20;;;19.40;;
1300;SDS011;59099;48.806;9.160;2022-12-18T12:41:16;28.70;;;19.67;;
1300;SDS011;59099;48.806;9.160;2022-12-18T12:44:05;28.03;;;18.47;;
1300;SDS011;59099;48.806;9.160;2022-12-18T12:46:35;31.07;;;19.90;;
1300;SDS011;59099;48.806;9.160;2022-12-18T12:49:09;28.90;;;18.37;;
1300;SDS011;59099;48.806;9.160;2022-12-18T12:51:46;29.30;;;19.00;;
1300;SDS011;59099;48.806;9.160;2022-12-18T12:54:30;28.27;;;19.07;;
1300;SDS011;59099;48.806;9.160;2022-12-18T13:02:20;31.53;;;20.40;;
1300;SDS011;59099;48.806;9.160;2022-12-18T13:07:36;34.73;;;21.30;;
1300;SDS011;59099;48.806;9.160;2022-12-18T13:18:25;34.93;;;20.13;;
1300;SDS011;59099;48.806;9.160;2022-12-18T13:25:54;34.00;;;19.70;;
1300;SDS011;59099;48.806;9.160;2022-12-18T13:33:46;39.13;;;21.10;;
1300;SDS011;59099;48.806;9.160;2022-12-18T13:38:47;32.67;;;20.40;;
1300;SDS011;59099;48.806;9.160;2022-12-18T13:41:35;33.77;;;22.67;;
1300;SDS011;59099;48.806;9.160;2022-12-18T13:47:01;32.00;;;19.13;;
1300;SDS011;59099;48.806;9.160;2022-12-18T13:52:22;31.97;;;19.50;;
1300;SDS011;59099;48.806;9.160;2022-12-18T13:55:04;39.03;;;23.23;;
1300;SDS011;59099;48.806;9.160;2022-12-18T13:57:39;34.63;;;21.37;;
1300;SDS011;59099;48.806;9.160;2022-12-18T14:00:19;35.50;;;21.20;;
1300;SDS011;59099;48.806;9.160;2022-12-18T14:02:49;36.30;;;22.90;;
1300;SDS011;59099;48.806;9.160;2022-12-18T14:07:55;34.00;;;22.23;;
1300;SDS011;59099;48.806;9.160;2022-12-18T14:10:30;34.93;;;21.33;;
1300;SDS011;59099;48.806;9.160;2022-12-18T14:12:57;33.30;;;21.30;;
1300;SDS011;59099;48.806;9.160;2022-12-18T14:15:36;35.23;;;22.17;;
1300;SDS011;59099;48.806;9.160;2022-12-18T14:21:23;37.17;;;19.83;;
1300;SDS011;59099;48.806;9.160;2022-12-18T14:26:40;37.27;;;21.60;;
1300;SDS011;59099;48.806;9.160;2022-12-18T14:29:19;34.43;;;21.03;;
1300;SDS011;59099;48.806;9.160;2022-12-18T14:32:08;41.10;;;22.40;;
1300;SDS011;59099;48.806;9.160;2022-12-18T14:34:41;41.70;;;25.67;;
1300;SDS011;59099;48.806;9.160;2022-12-18T14:37:11;39.10;;;22.93;;
1300;SDS011;59099;48.806;9.160;2022-12-18T14:39:39;34.47;;;22.30;;
1300;SDS011;59099;48.806;9.160;2022-12-18T14:42:05;41.13;;;23.50;;
1300;SDS011;59099;48.806;9.160;2022-12-18T14:44:37;41.20;;;23.10;;
1300;SDS011;59099;48.806;9.160;2022-12-18T14:47:03;40.83;;;22.03;;
1300;SDS011;59099;48.806;9.160;2022-12-18T14:49:32;41.30;;;22.93;;
1300;SDS011;59099;48.806;9.160;2022-12-18T14:52:03;39.20;;;22.17;;
1300;SDS011;59099;48.806;9.160;2022-12-18T14:54:45;38.97;;;22.97;;
1300;SDS011;59099;48.806;9.160;2022-12-18T14:59:50;44.10;;;23.10;;
1300;SDS011;59099;48.806;9.160;2022-12-18T15:02:21;45.03;;;22.27;;
1300;SDS011;59099;48.806;9.160;2022-12-18T15:04:59;42.27;;;23.27;;
1300;SDS011;59099;48.806;9.160;2022-12-18T15:07:33;37.43;;;22.27;;
1300;SDS011;59099;48.806;9.160;2022-12-18T15:10:22;48.33;;;23.10;;
1300;SDS011;59099;48.806;9.160;2022-12-18T15:23:14;37.47;;;22.30;;
1300;SDS011;59099;48.806;9.160;2022-12-18T15:25:40;40.73;;;23.70;;
1300;SDS011;59099;48.806;9.160;2022-12-18T15:28:16;49.20;;;25.73;;
1300;SDS011;59099;48.806;9.160;2022-12-18T15:30:57;43.67;;;26.37;;
1300;SDS011;59099;48.806;9.160;2022-12-18T15:36:19;56.80;;;28.70;;
1300;SDS011;59099;48.806;9.160;2022-12-18T15:38:56;49.00;;;28.07;;
1300;SDS011;59099;48.806;9.160;2022-12-18T15:41:25;50.77;;;26.53;;
1300;SDS011;59099;48.806;9.160;2022-12-18T15:43:51;49.70;;;28.80;;
1300;SDS011;59099;48.806;9.160;2022-12-18T15:46:19;56.37;;;30.07;;
1300;SDS011;59099;48.806;9.160;2022-12-18T15:48:53;54.57;;;26.80;;
1300;SDS011;59099;48.806;9.160;2022-12-18T15:51:31;54.10;;;28.87;;
1300;SDS011;59099;48.806;9.160;2022-12-18T15:53:59;51.43;;;27.67;;
1300;SDS011;59099;48.806;9.160;2022-12-18T15:56:31;55.10;;;26.87;;
1300;SDS011;59099;48.806;9.160;2022-12-18T15:59:20;78.30;;;30.17;;
1300;SDS011;59099;48.806;9.160;2022-12-18T16:01:46;51.97;;;27.37;;
1300;SDS011;59099;48.806;9.160;2022-12-18T16:04:21;48.07;;;26.33;;
1300;SDS011;59099;48.806;9.160;2022-12-18T16:06:49;44.57;;;23.50;;
1300;SDS011;59099;48.806;9.160;2022-12-18T16:09:16;39.37;;;21.97;;
1300;SDS011;59099;48.806;9.160;2022-12-18T16:11:43;38.00;;;22.63;;
1300;SDS011;59099;48.806;9.160;2022-12-18T16:14:19;45.87;;;22.97;;
1300;SDS011;59099;48.806;9.160;2022-12-18T16:16:48;40.10;;;23.10;;
1300;SDS011;59099;48.806;9.160;2022-12-18T16:19:19;48.90;;;24.30;;
1300;SDS011;59099;48.806;9.160;2022-12-18T16:21:46;47.47;;;25.87;;
1300;SDS011;59099;48.806;9.160;2022-12-18T16:24:14;47.77;;;25.67;;
1300;SDS011;59099;48.806;9.160;2022-12-18T16:26:43;52.33;;;27.83;;
1300;SDS011;59099;48.806;9.160;2022-12-18T16:29:09;46.03;;;24.10;;
1300;SDS011;59099;48.806;9.160;2022-12-18T16:31:35;54.97;;;26.73;;
1300;SDS011;59099;48.806;9.160;2022-12-18T16:36:54;43.70;;;25.93;;
1300;SDS011;59099;48.806;9.160;2022-12-18T16:39:25;50.70;;;25.77;;
1300;SDS011;59099;48.806;9.160;2022-12-18T16:41:51;51.20;;;24.93;;
1300;SDS011;59099;48.806;9.160;2022-12-18T16:44:17;43.20;;;24.37;;
1300;SDS011;59099;48.806;9.160;2022-12-18T16:46:45;56.07;;;28.20;;
1300;SDS011;59099;48.806;9.160;2022-12-18T16:49:12;61.30;;;28.40;;
1300;SDS011;59099;48.806;9.160;2022-12-18T16:51:40;55.30;;;27.73;;
1300;SDS011;59099;48.806;9.160;2022-12-18T16:54:10;47.40;;;27.77;;
1300;SDS011;59099;48.806;9.160;2022-12-18T16:56:38;48.93;;;25.83;;
1300;SDS011;59099;48.806;9.160;2022-12-18T16:59:04;43.37;;;24.17;;
1300;SDS011;59099;48.806;9.160;2022-12-18T17:01:31;48.43;;;26.30;;
1300;SDS011;59099;48.806;9.160;2022-12-18T17:03:59;47.87;;;25.60;;
1300;SDS011;59099;48.806;9.160;2022-12-18T17:06:27;46.20;;;26.43;;
1300;SDS011;59099;48.806;9.160;2022-12-18T17:09:00;42.23;;;25.10;;
1300;SDS011;59099;48.806;9.160;2022-12-18T17:11:29;51.37;;;29.10;;